福岡空港の過去48時間の天気

福岡空港 (Fukuoka)

現在時刻: 11/24 00:13 JST (11/23 15:13 UTC) 以下の時間は現地時間です。

過去48時間のMETAR気象情報
時間 風向 風速(m/s) 視程 気温(℃) 湿度(%) 気圧(hPa) 天気現象
24 00:00 西 7 10km以上 10 46 1022
23 23:30 西北西 6 10km以上 10 50 1022
23 23:00 西北西 6 10km以上 10 46 1022
23 22:30 西北西 5 10km以上 10 50 1021
23 22:00 西 6 10km以上 10 46 1021
23 21:30 西北西 6 10km以上 10 43 1021
23 21:00 西北西 7 10km以上 10 46 1020
23 20:30 西北西 7 10km以上 10 46 1020
23 20:00 西 7 10km以上 11 43 1020 弱いしゅう雨
23 19:30 西北西 5 10km以上 11 47 1020
23 19:00 西北西 7 10km以上 11 47 1019
23 18:30 西北西 5 10km以上 11 50 1019 弱い雨
23 18:00 西北西 5 10km以上 10 58 1019
23 17:30 北西 6 10km以上 9 62 1019 弱い雨
23 17:00 西 6 10km以上 11 43 1019
23 16:30 西北西 7 10km以上 11 43 1019
23 16:00 西北西 7 10km以上 11 43 1019
23 15:30 西北西 4 10km以上 11 43 1019
23 15:00 西北西 5 10km以上 11 40 1019
23 14:30 西北西 5 10km以上 11 40 1019
23 14:00 北西 7 10km以上 10 40 1019
23 13:30 北西 7 10km以上 12 41 1019
23 13:00 北西 6 10km以上 11 47 1019
23 12:30 北西 6 10km以上 11 40 1020
23 12:06 北西 8 10km以上 11 47 1020
23 12:00 北北西 8 10km以上 11 43 1020
23 11:30 北北西 8 10km以上 12 41 1021
23 11:00 北北西 9 10km以上 11 43 1021
23 10:30 北西 8 10km以上 12 44 1020
23 10:00 北北西 8 10km以上 11 40 1020
23 09:30 8 10km以上 10 43 1019
23 09:00 7 10km以上 11 43 1019
23 08:30 7 10km以上 10 46 1019
23 08:00 北北西 8 10km以上 10 50 1019
23 07:30 7 10km以上 11 47 1018
23 07:00 8 10km以上 11 50 1017
23 06:30 北北西 8 10km以上 11 54 1017
23 06:00 北北西 8 10km以上 11 58 1015
23 05:30 北北西 8 10km以上 12 54 1015
23 05:00 北北西 8 10km以上 12 62 1015
23 04:30 北北西 8 10km以上 12 67 1014
23 04:00 北北西 7 10km以上 13 62 1014
23 03:30 北北西 6 10km以上 13 67 1014
23 03:00 北西 5 10km以上 13 67 1014
23 02:36 北北西 5 10km以上 9 93 1014
23 02:30 南南東 2 8,000m 9 93 1014
23 02:25 南南東 2 4,800m 9 93 1014 もや
23 02:00 南東 3 10km以上 9 93 1014
23 01:30 南南東 3 8,000m 8 100 1014
23 01:00 南南東 2 8,000m 8 100 1014
23 00:50 南南東 3 4,700m 8 93 1014 もや
23 00:30 南南東 2 10km以上 8 93 1014
23 00:00 不定 1 10km以上 9 93 1014
22 23:30 南南東 2 10km以上 10 87 1014
22 23:00 南南東 1 10km以上 9 93 1015
22 22:30 不定 1 10km以上 10 87 1015
22 22:00 南東 2 10km以上 10 87 1015
22 21:30 南東 2 10km以上 10 87 1015
22 21:00 南東 2 10km以上 10 87 1015
22 20:30 不定 1 10km以上 10 87 1015
22 20:00 東南東 2 10km以上 10 94 1015
22 19:30 東南東 2 10km以上 10 87 1015
22 19:00 東南東 2 10km以上 10 94 1016
22 18:30 南東 3 10km以上 10 87 1016
22 18:00 南南東 3 10km以上 10 87 1016
22 17:30 南南東 2 10km以上 10 87 1016 弱い雨
22 17:00 南南東 3 10km以上 10 87 1016 弱い雨
22 16:30 2 10km以上 10 87 1016 弱い雨
22 16:00 2 10km以上 11 82 1016 弱い雨
22 15:30 南南東 2 10km以上 11 82 1016 弱い雨
22 15:00 東南東 2 10km以上 11 82 1016 弱い雨
22 14:30 南東 2 10km以上 11 87 1017 弱い雨
22 14:00 不定 1 10km以上 11 87 1017 弱い雨
22 13:30 南南東 2 10km以上 11 87 1017 弱い雨
22 13:00 南南東 4 10km以上 10 94 1017 弱い雨
22 12:30 南南東 3 10km以上 10 87 1018 弱い雨
22 12:00 南南東 3 10km以上 10 87 1018 弱い雨
22 11:30 南南東 3 10km以上 10 87 1018 弱い雨
22 11:00 東南東 3 10km以上 9 87 1019 弱い雨
22 10:30 南南東 4 10km以上 9 81 1020 弱い雨
22 10:00 南南東 4 10km以上 9 76 1020 弱い雨
22 09:30 南南東 5 10km以上 10 71 1020 弱い雨
22 09:00 2 10km以上 10 62 1020 弱い雨
22 08:30 3 10km以上 9 71 1020 弱い雨
22 08:00 南南東 4 10km以上 9 66 1020
22 07:30 2 10km以上 9 66 1020
22 07:00 南南東 3 10km以上 8 76 1020
22 06:30 南南東 3 10km以上 8 76 1020
22 06:00 南南東 2 10km以上 8 76 1020
22 05:30 南東 3 10km以上 8 76 1020
22 05:00 南南東 2 10km以上 8 71 1020
22 04:30 南東 2 10km以上 8 76 1020
22 04:00 南南東 2 10km以上 8 71 1020
22 03:30 南南東 3 10km以上 8 76 1020
22 03:00 2 10km以上 8 71 1021
22 02:30 南南東 3 10km以上 7 76 1021
22 02:00 南南東 2 10km以上 7 76 1021
22 01:30 南南東 2 10km以上 7 76 1021
22 01:00 2 10km以上 7 76 1022
22 00:30 南南東 3 10km以上 6 81 1022
RJFF 231500Z AUTO 28013KT 9999 NSC 10/M01 Q1022
RJFF 231430Z AUTO 29012KT 250V320 9999 FEW044 BKN050 OVC080 10/M00 Q1022 RMK A3019
RJFF 231400Z AUTO 29012KT 250V310 9999 NSC 10/M01 Q1022 RMK A3018
RJFF 231330Z 29010G20KT 260V320 CAVOK 10/M00 Q1021 RMK A3018
RJFF 231300Z 28011KT 250V310 CAVOK 10/M01 Q1021 RMK A3017
RJFF 231230Z 29011KT 270V330 CAVOK 10/M02 Q1021 RMK A3015
RJFF 231200Z 29013KT CAVOK 10/M01 Q1020 RMK A3014
RJFF 231130Z 29013KT 260V320 9999 FEW040 SCT060 10/M01 Q1020 RMK 1CU040 3SC060 A3014
RJFF 231100Z 28013G26KT 240V310 9999 -SHRA FEW030 SCT040 BKN060 11/M01 Q1020 RMK 1CU030 3CU040 5SC060 A3013
RJFF 231030Z 29010KT 250V310 9999 FEW030 SCT045 BKN060 11/00 Q1020 RMK 1CU030 3SC045 5SC060 A3013
RJFF 231000Z 29013G23KT 260V320 9999 FEW030 SCT045 BKN060 11/00 Q1019 RMK 1CU030 3SC045 5SC060 A3012
RJFF 230930Z 29009KT 260V330 9999 -RA FEW030 SCT045 BKN060 11/01 Q1019 RMK 1CU030 4SC045 6SC060 A3011
RJFF 230900Z 30009KT 260V330 9999 FEW025 SCT045 BKN060 10/02 Q1019 RMK 1CU025 4SC045 6SC060 A3010
RJFF 230830Z 32011KT 280V350 9999 -RA FEW025 SCT040 BKN050 09/02 Q1019 RMK 1CU025 4SC040 6SC050 A3010
RJFF 230800Z 28011KT 240V320 9999 FEW030 SCT045 BKN050 11/M01 Q1019 RMK 1CU030 4SC045 6SC050 A3009
RJFF 230730Z 29013G23KT 260V320 9999 FEW030 SCT045 BKN050 11/M01 Q1019 RMK 1CU030 4SC045 5SC050 A3009
RJFF 230700Z 29014KT 250V320 9999 FEW035 SCT050 11/M01 Q1019 RMK 1CU035 3SC050 A3009
RJFF 230630Z 29008KT 9999 FEW035 SCT045 BKN050 11/M01 Q1019 RMK 1CU035 4SC045 5SC050 A3009
RJFF 230600Z 30009KT 270V340 9999 FEW035 SCT045 BKN050 11/M02 Q1019 RMK 1CU035 3SC045 5SC050 A3010
RJFF 230530Z 30010KT 260V330 9999 FEW035 SCT045 11/M02 Q1019 RMK 1CU035 3SC045 A3010
RJFF 230500Z 31013KT 9999 FEW040 SCT050 10/M03 Q1019 RMK 1CU040 3SC050 A3011
RJFF 230430Z 32013KT 280V350 9999 FEW035 SCT045 BKN050 12/M01 Q1019 RMK 1CU035 4SC045 5SC050 A3010
RJFF 230400Z 32012KT 280V360 9999 FEW035 SCT045 11/M00 Q1019 RMK 1CU035 3SC045 A3011
RJFF 230330Z 31012KT 280V350 9999 FEW030 SCT040 BKN/// 11/M02 Q1020
RJFF 230306Z 32015G26KT 300V360 9999 FEW030 BKN040 BKN/// 11/M00 Q1020 RMK 1CU030 5CU040 A3013
RJFF 230300Z 33016KT 300V360 9999 FEW030 BKN040 BKN/// 11/M01 Q1020
RJFF 230230Z 33016G27KT 9999 FEW030 SCT040 BKN/// 12/M01 Q1021
RJFF 230200Z 33017KT 290V350 9999 FEW030 SCT050 BKN/// 11/M01 Q1021
RJFF 230130Z 32015KT 9999 FEW030 SCT050 BKN/// 12/00 Q1020
RJFF 230100Z 34015KT 320V020 9999 FEW030 BKN050 11/M02 Q1020 RMK 1CU030 6SC050 A3013
RJFF 230030Z 35015KT 9999 FEW020 BKN050 10/M02 Q1019 RMK 1CU020 6SC050 A3012
RJFF 230000Z 35013KT 9999 FEW030 BKN050 11/M01 Q1019 RMK 1CU030 6SC050 A3010
RJFF 222330Z 35014KT 9999 FEW030 BKN050 10/M01 Q1019 RMK 1CU030 5SC050 A3010
RJFF 222300Z 34016KT 9999 FEW030 SCT050 BKN060 10/M00 Q1019 RMK 1CU030 3SC050 5SC060 A3009 P/RR
RJFF 222230Z 35014KT 9999 FEW030 SCT040 BKN050 11/00 Q1018 RMK 1CU030 3CU040 5SC050 A3006
RJFF 222200Z 35016KT 9999 FEW030 SCT040 BKN050 11/01 Q1017 RMK 1CU030 3CU040 5SC050 A3003
RJFF 222130Z 34016KT 9999 FEW030 SCT050 BKN060 11/02 Q1017 RMK 1CU030 3SC050 6SC060 A3003 P/RR
RJFF 222100Z 33015KT 9999 FEW030 SCT050 BKN060 11/03 Q1015 RMK 1CU030 3SC050 6SC060 A3000
RJFF 222030Z AUTO 33015KT 9999 FEW046 SCT050 OVC060 12/03 Q1015 RMK A3000
RJFF 222000Z AUTO 33015G25KT 9999 FEW045 BKN050 OVC060 12/05 Q1015 RMK A2999
RJFF 221930Z AUTO 34016KT 9999 SCT040 BKN044 BKN050 12/06 Q1014 RMK A2997
RJFF 221900Z AUTO 33013KT 9999 FEW038 SCT041 BKN049 13/06 Q1014 RMK A2996
RJFF 221830Z AUTO 34012KT 9999 SCT038 SCT049 BKN050 13/07 Q1014 RMK A2995
RJFF 221800Z AUTO 32010KT 9999 SCT039 SCT044 BKN050 13/07 Q1014 RMK A2995
RJFF 221736Z AUTO 33010KT 9999 SCT042 BKN050 BKN060 09/08 Q1014 RMK A2995
RJFF 221730Z AUTO 16003KT 130V210 8000 SCT041 BKN050 BKN060 09/08 Q1014 RMK A2995
RJFF 221725Z AUTO 16004KT 120V210 4800 BR SCT041 BKN050 BKN060 09/08 Q1014 RMK A2995
RJFF 221700Z AUTO 14005KT 9999 SCT045 SCT049 BKN060 09/08 Q1014 RMK A2995
RJFF 221630Z AUTO 15005KT 8000 FEW043 SCT045 BKN050 08/08 Q1014 RMK A2995
RJFF 221600Z AUTO 16004KT 120V190 8000 FEW042 08/08 Q1014 RMK A2995
RJFF 221550Z AUTO 16005KT 4700 BR FEW047 08/07 Q1014 RMK A2994
RJFF 221530Z AUTO 15003KT 9999 FEW041 SCT050 08/07 Q1014 RMK A2995
RJFF 221500Z AUTO VRB02KT 9999 FEW036 SCT040 BKN050 09/08 Q1014 RMK A2996
RJFF 221430Z AUTO 16003KT 130V230 9999 FEW037 SCT050 BKN060 10/08 Q1014 RMK A2997
RJFF 221400Z AUTO 16002KT 9999 SCT040 BKN044 BKN049 09/08 Q1015 RMK A2997
RJFF 221330Z VRB02KT 9999 FEW005 SCT045 10/08 Q1015 RMK 1ST005 3CU045 A2998
RJFF 221300Z 13003KT 070V190 9999 FEW005 SCT120 BKN130 10/08 Q1015 RMK 1ST005 3AC120 6AC130 A2999
RJFF 221230Z 13004KT 100V160 9999 FEW005 BKN110 BKN120 10/08 Q1015 RMK 1ST005 5AC110 7AC120 A2999
RJFF 221200Z 14003KT 090V180 9999 FEW005 BKN110 BKN120 10/08 Q1015 RMK 1ST005 5AC110 7AC120 A2999
RJFF 221130Z VRB02KT 9999 FEW008 SCT100 BKN120 10/08 Q1015 RMK 1ST008 3AC100 7AC120 A2999
RJFF 221100Z 12003KT 090V160 9999 FEW008 BKN100 BKN110 10/09 Q1015 RMK 1ST008 5AC100 7AC110 A2998
RJFF 221030Z 12004KT 090V150 9999 FEW008 SCT080 BKN100 10/08 Q1015 RMK 1ST008 4AC080 6AC100 A2999
RJFF 221000Z 12003KT 070V150 9999 FEW008 BKN100 BKN120 10/09 Q1016 RMK 1ST008 5AC100 7AC120 A3000
RJFF 220930Z 14005KT 9999 FEW008 BKN100 BKN120 10/08 Q1016 RMK 1ST008 5AC100 7AC120 A3001
RJFF 220900Z 15005KT 9999 FEW008 SCT050 BKN100 10/08 Q1016 RMK 1ST008 3SC050 6AC100 A3001
RJFF 220830Z 15004KT 9999 -RA FEW005 SCT050 BKN090 10/08 Q1016 RMK 1ST005 3SC050 6AC090 A3001
RJFF 220800Z 16005KT 9999 -RA FEW005 SCT050 BKN090 10/08 Q1016 RMK 1ST005 4SC050 6AC090 A3000
RJFF 220730Z 17004KT 9999 -RA FEW005 SCT030 BKN050 10/08 Q1016 RMK 1ST005 3CU030 7SC050 A3000
RJFF 220700Z 17004KT 140V210 9999 -RA FEW005 SCT035 BKN050 11/08 Q1016 RMK 1ST005 4CU035 7SC050 A3002
RJFF 220630Z 15004KT 110V170 9999 -RA FEW005 SCT035 BKN050 11/08 Q1016 RMK 1ST005 3CU035 7SC050 A3002
RJFF 220600Z 12004KT 080V140 9999 -RA FEW005 SCT035 BKN050 11/08 Q1016 RMK 1ST005 3CU035 7SC050 A3002
RJFF 220530Z 14003KT 100V170 9999 -RA FEW005 SCT040 BKN050 11/09 Q1017 RMK 1ST005 3CU040 7SC050 A3004
RJFF 220500Z VRB01KT 9999 -RA FEW005 SCT035 BKN050 11/09 Q1017 RMK 1ST005 3CU035 7SC050 A3004
RJFF 220430Z 16003KT 120V180 9999 -RA FEW005 SCT035 BKN050 11/09 Q1017 RMK 1ST005 3CU035 6SC050 A3005
RJFF 220400Z 15008KT 9999 -RA FEW005 SCT040 BKN050 10/09 Q1017 RMK 1ST005 3CU040 7SC050 A3005
RJFF 220330Z 15005KT 090V180 9999 -RA FEW005 SCT050 BKN060 10/08 Q1018 RMK 1ST005 3SC050 7SC060 A3008
RJFF 220300Z 16005KT 130V190 9999 -RA FEW005 SCT050 BKN060 10/08 Q1018 RMK 1ST005 3SC050 7SC060 A3006
RJFF 220230Z 15005KT 9999 -RA FEW010 SCT040 BKN050 10/08 Q1018 RMK 1ST010 3CU040 6SC050 A3008 P/FR
RJFF 220200Z 12006KT 9999 -RA FEW030 SCT040 BKN050 09/07 Q1019 RMK 1CU030 4CU040 7SC050 A3011 P/FR
RJFF 220130Z 16008KT 9999 -RA FEW030 SCT040 BKN050 09/06 Q1020 RMK 1CU030 4CU040 7SC050 A3015
RJFF 220100Z 16008KT 9999 -RA FEW030 SCT040 BKN050 09/05 Q1020 RMK 1CU030 3CU040 7SC050 A3015
RJFF 220030Z 16009KT 9999 -RA FEW030 SCT040 BKN050 10/05 Q1020 RMK 1CU030 3CU040 6SC050 A3014
RJFF 220000Z 19004KT 150V220 9999 -RA FEW035 SCT050 BKN070 10/03 Q1020 RMK 1CU035 3SC050 7AC070 A3014
RJFF 212330Z 17005KT 130V220 9999 -RA FEW025 SCT050 BKN080 09/04 Q1020 RMK 1CU025 3SC050 7AC080 A3014
RJFF 212300Z 15007KT 9999 FEW025 SCT080 BKN110 09/03 Q1020 RMK 1CU025 3AC080 7AC110 A3013
RJFF 212230Z 17003KT 150V210 9999 FEW025 SCT080 BKN110 09/03 Q1020 RMK 1CU025 3AC080 7AC110 A3013
RJFF 212200Z 16006KT 9999 FEW025 SCT050 BKN110 08/04 Q1020 RMK 1CU025 3SC050 7AC110 A3012
RJFF 212130Z 15005KT 9999 FEW025 BKN050 BKN080 08/04 Q1020 RMK 1CU025 5SC050 7AC080 A3012
RJFF 212100Z 16003KT 9999 FEW025 BKN050 BKN080 08/04 Q1020 RMK 1CU025 5SC050 7AC080 A3012
RJFF 212030Z AUTO 14005KT 9999 FEW047 OVC050 08/04 Q1020 RMK A3012
RJFF 212000Z AUTO 16004KT 9999 NSC 08/03 Q1020 RMK A3013
RJFF 211930Z AUTO 14004KT 9999 NSC 08/04 Q1020 RMK A3013
RJFF 211900Z AUTO 15003KT 9999 NSC 08/03 Q1020 RMK A3014
RJFF 211830Z AUTO 16005KT 9999 NSC 08/04 Q1020 RMK A3014
RJFF 211800Z AUTO 19004KT 9999 NSC 08/03 Q1021 RMK A3015
RJFF 211730Z AUTO 15006KT 9999 NSC 07/03 Q1021 RMK A3016
RJFF 211700Z AUTO 15003KT 9999 NSC 07/03 Q1021 RMK A3016
RJFF 211630Z AUTO 15003KT 9999 NSC 07/03 Q1021 RMK A3018
RJFF 211600Z AUTO 18003KT 9999 NCD 07/03 Q1022 RMK A3019
RJFF 211530Z AUTO 16005KT 9999 NCD 06/03 Q1022 RMK A3020